Time;durP1;ratioP1;P1;durP2;ratioP2;P2;SDS_P1;SDS_P2;PMS_P1;PMS_P2;Temp;Humidity;BMP_temperature;BMP_pressure;BME280_temperature;BME280_humidity;BME280_pressure;Samples;Min_cycle;Max_cycle;Signal;HPM_P1;HPM_P2
2021/12/31 00:01:14;;;;;;;14.23;9.83;;;11.70;96.80;;;;;;5075183;28;20549;-89
2021/12/31 00:03:41;;;;;;;13.33;10.10;;;11.70;96.80;;;;;;5057095;28;20198;-89
2021/12/31 00:06:06;;;;;;;9.90;6.40;;;11.60;96.80;;;;;;5057282;28;20203;-89
2021/12/31 00:08:32;;;;;;;14.83;9.20;;;11.70;96.80;;;;;;5057254;28;20171;-89
2021/12/31 00:10:59;;;;;;;15.50;7.90;;;11.70;96.80;;;;;;5057162;28;20168;-89
2021/12/31 00:13:29;;;;;;;9.70;7.83;;;11.80;96.80;;;;;;5058062;28;20300;-89
2021/12/31 00:15:55;;;;;;;13.90;10.20;;;11.70;96.70;;;;;;5056806;28;20655;-89
2021/12/31 00:18:21;;;;;;;17.13;9.97;;;11.70;96.70;;;;;;5056803;28;20179;-89
2021/12/31 00:20:47;;;;;;;15.53;9.27;;;11.80;96.70;;;;;;5056812;28;20559;-89
2021/12/31 00:23:15;;;;;;;15.90;8.20;;;11.70;96.60;;;;;;5056855;28;20179;-89
2021/12/31 00:25:42;;;;;;;15.70;8.73;;;11.70;96.60;;;;;;5056639;28;20219;-89
2021/12/31 00:28:10;;;;;;;17.17;9.70;;;11.70;96.60;;;;;;5056647;28;20703;-89
2021/12/31 00:30:37;;;;;;;15.30;9.77;;;11.70;96.60;;;;;;5056513;28;20195;-89
2021/12/31 00:33:03;;;;;;;17.17;9.33;;;11.80;96.50;;;;;;5056533;28;20167;-89
2021/12/31 00:35:30;;;;;;;15.07;8.23;;;11.80;96.50;;;;;;5074498;28;20582;-89
2021/12/31 00:37:56;;;;;;;13.57;8.03;;;11.80;96.50;;;;;;5056551;28;20172;-89
2021/12/31 00:40:22;;;;;;;15.77;8.60;;;11.80;96.40;;;;;;5056275;28;20559;-89
2021/12/31 00:42:48;;;;;;;10.27;5.13;;;11.80;96.30;;;;;;5056695;28;20266;-90
2021/12/31 00:45:17;;;;;;;12.60;6.23;;;11.80;96.30;;;;;;5056392;28;20174;-88
2021/12/31 00:47:44;;;;;;;20.33;8.90;;;11.80;96.30;;;;;;5056611;28;20198;-88
2021/12/31 00:50:11;;;;;;;13.53;8.73;;;11.70;96.20;;;;;;5074370;28;20190;-88
2021/12/31 00:52:37;;;;;;;10.80;7.77;;;11.80;96.20;;;;;;5058356;28;20258;-90
2021/12/31 00:55:07;;;;;;;12.83;7.57;;;11.80;96.20;;;;;;5070409;28;20274;-90
2021/12/31 00:57:33;;;;;;;19.87;10.23;;;11.90;96.10;;;;;;5073334;28;20206;-91
2021/12/31 00:59:59;;;;;;;24.23;10.20;;;11.80;96.00;;;;;;5072389;28;20195;-91
2021/12/31 01:02:27;;;;;;;14.17;8.07;;;11.80;96.00;;;;;;5067993;28;20183;-91
2021/12/31 01:04:53;;;;;;;18.30;9.17;;;11.90;95.90;;;;;;5070439;28;20175;-93
2021/12/31 01:07:19;;;;;;;19.33;8.67;;;11.80;95.70;;;;;;5066568;28;20299;-93
2021/12/31 01:09:45;;;;;;;17.17;8.73;;;11.80;95.70;;;;;;5068686;28;20191;-92
2021/12/31 01:12:13;;;;;;;10.97;7.07;;;12.00;95.60;;;;;;5069188;28;20544;-93
2021/12/31 01:14:58;;;;;;;16.60;7.23;;;12.00;95.40;;;;;;5082476;28;20171;-93
2021/12/31 01:20:10;;;;;;;14.40;7.90;;;11.90;95.20;;;;;;5082984;28;20317;-92
2021/12/31 01:22:36;;;;;;;9.80;6.60;;;11.80;95.30;;;;;;5062001;28;20179;-92
2021/12/31 01:25:04;;;;;;;6.63;3.90;;;12.00;95.00;;;;;;5062836;28;20212;-93
2021/12/31 01:27:30;;;;;;;14.77;6.40;;;11.90;94.90;;;;;;5061014;28;20238;-92
2021/12/31 01:29:56;;;;;;;9.03;4.63;;;12.00;94.80;;;;;;5061803;28;20287;-92
2021/12/31 01:32:22;;;;;;;16.93;5.77;;;12.00;94.60;;;;;;5060328;28;20657;-93
2021/12/31 01:34:48;;;;;;;16.27;6.10;;;12.00;94.50;;;;;;5063609;28;20191;-93
2021/12/31 01:37:13;;;;;;;13.50;5.73;;;12.00;94.40;;;;;;5079587;28;20171;-90
2021/12/31 01:39:39;;;;;;;11.83;5.20;;;12.00;94.40;;;;;;5076370;28;20715;-91
2021/12/31 01:42:11;;;;;;;10.63;5.53;;;11.90;94.30;;;;;;5080739;28;20215;-92
2021/12/31 01:44:41;;;;;;;11.77;5.40;;;12.00;94.30;;;;;;5062339;28;20178;-92
2021/12/31 01:47:11;;;;;;;14.27;5.60;;;11.90;94.30;;;;;;5064382;28;20192;-92
2021/12/31 01:49:40;;;;;;;13.47;5.40;;;12.00;94.20;;;;;;5065410;28;20336;-92
2021/12/31 01:52:09;;;;;;;15.57;5.73;;;11.90;94.20;;;;;;5080147;28;20191;-93
2021/12/31 01:54:36;;;;;;;16.90;5.33;;;12.00;94.40;;;;;;5062690;28;20172;-92
2021/12/31 01:57:07;;;;;;;13.93;5.43;;;12.00;94.30;;;;;;5066654;28;20177;-92
2021/12/31 01:59:36;;;;;;;13.30;5.37;;;12.00;94.10;;;;;;5063800;28;20191;-93
2021/12/31 02:02:05;;;;;;;12.33;5.63;;;11.90;94.20;;;;;;5064117;28;20175;-92
2021/12/31 02:04:31;;;;;;;14.57;5.40;;;12.00;94.00;;;;;;5066954;28;20175;-92
2021/12/31 02:06:58;;;;;;;12.03;5.33;;;11.90;94.10;;;;;;5063680;28;20572;-91
2021/12/31 02:09:24;;;;;;;20.83;6.27;;;11.90;94.30;;;;;;5064174;28;20202;-92
2021/12/31 02:11:54;;;;;;;18.83;6.13;;;11.90;94.30;;;;;;5064561;28;20179;-92
2021/12/31 02:14:20;;;;;;;13.80;4.70;;;11.80;94.40;;;;;;5065118;28;20179;-92
2021/12/31 02:16:45;;;;;;;15.53;5.83;;;11.80;94.50;;;;;;5083203;28;20256;-92
2021/12/31 02:19:17;;;;;;;11.70;4.80;;;11.90;94.30;;;;;;5063055;28;20249;-92
2021/12/31 02:21:46;;;;;;;14.57;6.17;;;11.80;94.50;;;;;;5065131;28;20171;-91
2021/12/31 02:24:13;;;;;;;16.63;6.57;;;11.90;94.50;;;;;;5065625;28;20282;-91
2021/12/31 02:26:40;;;;;;;20.83;6.27;;;11.80;94.50;;;;;;5066607;28;20321;-94
2021/12/31 02:29:05;;;;;;;17.17;6.30;;;11.80;94.60;;;;;;5065457;28;20689;-92
2021/12/31 02:31:31;;;;;;;17.27;6.03;;;11.80;94.60;;;;;;5066430;28;20206;-92
2021/12/31 02:33:57;;;;;;;18.17;6.10;;;11.80;94.40;;;;;;5066747;28;20167;-93
2021/12/31 02:36:23;;;;;;;16.37;5.73;;;11.90;94.40;;;;;;5066321;28;20244;-93
2021/12/31 02:38:50;;;;;;;16.73;5.37;;;11.90;94.10;;;;;;5064748;28;20294;-92
2021/12/31 02:41:15;;;;;;;22.13;5.73;;;11.90;94.00;;;;;;5065493;28;20179;-92
2021/12/31 02:43:41;;;;;;;14.33;5.07;;;11.90;93.70;;;;;;5065730;28;20186;-92
2021/12/31 02:46:06;;;;;;;19.53;6.63;;;11.90;93.70;;;;;;5083079;28;20202;-92
2021/12/31 02:48:32;;;;;;;21.73;5.80;;;12.00;93.50;;;;;;5066620;28;20272;-92
2021/12/31 02:50:59;;;;;;;16.97;4.90;;;11.90;93.50;;;;;;5084896;28;20199;-92
2021/12/31 02:53:40;;;;;;;11.60;5.23;;;12.00;93.40;;;;;;5084055;28;20171;-92
2021/12/31 02:56:09;;;;;;;19.57;4.83;;;12.00;93.30;;;;;;5064737;28;20225;-91
2021/12/31 02:58:36;;;;;;;19.07;5.67;;;12.00;93.30;;;;;;5067288;28;20246;-92
2021/12/31 03:01:03;;;;;;;13.87;5.67;;;12.10;93.20;;;;;;5069279;28;20176;-92
2021/12/31 03:03:32;;;;;;;12.13;4.73;;;12.00;93.10;;;;;;5069270;28;20203;-92
2021/12/31 03:05:59;;;;;;;15.60;4.77;;;12.10;93.30;;;;;;5069644;28;20208;-92
2021/12/31 03:08:29;;;;;;;7.47;4.00;;;12.00;92.90;;;;;;5067983;28;20171;-92
2021/12/31 03:10:56;;;;;;;8.97;3.90;;;12.00;92.90;;;;;;5067436;28;20167;-92
2021/12/31 03:13:24;;;;;;;13.67;3.93;;;12.10;92.80;;;;;;5068255;28;20178;-92
2021/12/31 03:15:52;;;;;;;15.53;5.07;;;12.10;92.80;;;;;;5087497;28;20542;-92
2021/12/31 03:18:19;;;;;;;8.37;3.17;;;12.00;92.80;;;;;;5087990;28;20201;-91
2021/12/31 03:20:57;;;;;;;7.67;2.73;;;12.00;92.80;;;;;;5068877;28;20222;-92
2021/12/31 03:23:27;;;;;;;13.20;4.07;;;12.30;92.20;;;;;;5067648;28;20163;-92
2021/12/31 03:25:53;;;;;;;11.97;4.17;;;12.10;92.40;;;;;;5067790;28;20195;-92
2021/12/31 03:28:20;;;;;;;11.67;3.13;;;12.00;92.50;;;;;;5068965;28;20180;-91
2021/12/31 03:30:47;;;;;;;8.73;3.30;;;12.00;92.70;;;;;;5068074;28;20229;-92
2021/12/31 03:33:14;;;;;;;20.13;4.50;;;12.00;92.70;;;;;;5085901;28;20197;-92
2021/12/31 03:35:39;;;;;;;12.17;3.83;;;12.00;92.50;;;;;;5068340;28;20172;-92
2021/12/31 03:38:05;;;;;;;17.03;3.90;;;12.10;92.70;;;;;;5066202;28;20188;-91
2021/12/31 03:40:31;;;;;;;17.90;4.00;;;12.10;92.40;;;;;;5066966;28;20191;-92
2021/12/31 03:42:56;;;;;;;16.77;5.67;;;12.00;92.60;;;;;;5070166;28;20179;-92
2021/12/31 03:45:22;;;;;;;13.60;3.47;;;12.00;92.70;;;;;;5068908;28;20171;-92
2021/12/31 03:47:48;;;;;;;13.17;4.17;;;12.20;92.40;;;;;;5067765;28;20175;-91
2021/12/31 03:50:13;;;;;;;7.77;2.50;;;12.10;92.20;;;;;;5067903;28;20263;-92
2021/12/31 03:52:39;;;;;;;12.50;4.30;;;12.20;92.20;;;;;;5069112;28;20176;-92
2021/12/31 03:55:07;;;;;;;9.70;2.90;;;12.10;92.20;;;;;;5085392;28;20182;-92
2021/12/31 03:57:34;;;;;;;13.10;4.20;;;12.20;92.10;;;;;;5085699;28;20225;-92
2021/12/31 03:59:59;;;;;;;11.80;3.47;;;12.10;92.20;;;;;;5066410;28;20195;-92
2021/12/31 04:02:25;;;;;;;10.57;4.57;;;12.20;92.20;;;;;;5084010;28;20231;-92
2021/12/31 04:04:51;;;;;;;9.57;3.27;;;12.10;92.00;;;;;;5084785;28;20175;-92
2021/12/31 04:07:17;;;;;;;12.20;3.97;;;12.20;92.30;;;;;;5067422;28;20203;-92
2021/12/31 04:09:42;;;;;;;16.83;3.93;;;12.10;92.20;;;;;;5066247;28;20191;-92
2021/12/31 04:12:09;;;;;;;17.10;4.43;;;12.00;92.30;;;;;;5067801;28;20274;-92
2021/12/31 04:14:34;;;;;;;13.17;3.47;;;12.00;92.50;;;;;;5067417;28;20176;-92
2021/12/31 04:17:00;;;;;;;14.57;4.00;;;12.00;92.50;;;;;;5067999;28;20187;-92
2021/12/31 04:19:26;;;;;;;18.60;4.10;;;12.00;92.40;;;;;;5067295;28;20225;-92
2021/12/31 04:21:51;;;;;;;11.33;3.73;;;12.00;92.50;;;;;;5067269;28;20222;-92
2021/12/31 04:27:02;;;;;;;16.53;3.87;;;12.00;92.40;;;;;;5083093;28;20198;-92
2021/12/31 04:29:28;;;;;;;13.03;3.33;;;12.00;92.30;;;;;;5065072;28;20191;-91
2021/12/31 04:31:54;;;;;;;12.07;4.10;;;12.00;92.20;;;;;;5065197;28;20208;-92
2021/12/31 04:34:19;;;;;;;8.80;3.20;;;12.00;92.20;;;;;;5082096;28;20175;-93
2021/12/31 04:36:45;;;;;;;16.87;3.90;;;12.00;92.20;;;;;;5081307;28;20180;-92
2021/12/31 04:39:11;;;;;;;9.43;3.20;;;12.00;92.20;;;;;;5064314;28;20195;-92
2021/12/31 04:41:36;;;;;;;12.60;3.13;;;12.10;92.00;;;;;;5063723;28;20697;-92
2021/12/31 04:44:02;;;;;;;16.30;4.23;;;12.00;91.80;;;;;;5081800;28;20171;-92
2021/12/31 04:46:27;;;;;;;12.77;3.67;;;12.00;91.80;;;;;;5082348;28;20706;-91
2021/12/31 04:48:53;;;;;;;16.53;3.30;;;12.10;91.70;;;;;;5080900;28;20188;-91
2021/12/31 04:51:19;;;;;;;18.80;4.63;;;12.10;91.50;;;;;;5080387;28;20537;-91
2021/12/31 04:53:44;;;;;;;17.13;4.23;;;12.10;91.50;;;;;;5080736;28;20168;-92
2021/12/31 04:56:10;;;;;;;13.03;4.10;;;12.20;91.30;;;;;;5062673;28;20189;-93
2021/12/31 04:58:35;;;;;;;13.17;3.90;;;12.20;91.40;;;;;;5063790;28;20563;-92
2021/12/31 05:01:01;;;;;;;17.73;3.83;;;12.30;91.00;;;;;;5080418;28;20182;-92
2021/12/31 05:03:27;;;;;;;16.27;3.97;;;12.10;91.30;;;;;;5061847;28;20214;-93
2021/12/31 05:05:52;;;;;;;17.07;4.40;;;12.20;91.40;;;;;;5079883;28;20252;-93
2021/12/31 05:08:19;;;;;;;15.13;3.60;;;12.20;91.40;;;;;;5061703;28;20176;-92
2021/12/31 05:10:44;;;;;;;11.73;3.63;;;12.20;91.20;;;;;;5061240;28;20176;-91
2021/12/31 05:13:15;;;;;;;14.10;4.03;;;12.10;91.30;;;;;;5061370;28;20186;-92
2021/12/31 05:15:45;;;;;;;13.80;4.00;;;12.10;91.30;;;;;;5060691;28;20186;-92
2021/12/31 05:18:11;;;;;;;15.73;4.53;;;12.30;91.10;;;;;;5061544;28;20176;-93
2021/12/31 05:20:37;;;;;;;12.77;4.30;;;12.20;91.20;;;;;;5060044;28;20217;-93
2021/12/31 05:23:02;;;;;;;12.37;3.50;;;12.10;91.40;;;;;;5061074;28;20175;-93
2021/12/31 05:25:28;;;;;;;10.23;4.03;;;12.20;91.30;;;;;;5061087;28;20175;-92
2021/12/31 05:27:54;;;;;;;11.83;3.73;;;12.20;91.10;;;;;;5060465;28;20183;-91
2021/12/31 05:30:21;;;;;;;12.23;3.60;;;12.10;91.20;;;;;;5078734;28;20191;-92
2021/12/31 05:32:47;;;;;;;13.90;4.03;;;12.20;91.30;;;;;;5078519;28;20175;-92
2021/12/31 05:35:13;;;;;;;11.43;3.87;;;12.20;91.10;;;;;;5061135;28;20258;-92
2021/12/31 05:37:39;;;;;;;7.60;3.30;;;12.30;90.60;;;;;;5061439;28;20279;-93
2021/12/31 05:40:06;;;;;;;11.77;3.87;;;12.20;91.00;;;;;;5060746;28;20226;-92
2021/12/31 05:42:31;;;;;;;14.93;4.23;;;12.20;91.10;;;;;;5061311;28;20207;-93
2021/12/31 05:44:57;;;;;;;13.47;3.67;;;12.10;91.20;;;;;;5060814;28;20186;-92
2021/12/31 05:47:23;;;;;;;14.17;4.27;;;12.10;91.40;;;;;;5077849;28;20256;-92
2021/12/31 05:49:49;;;;;;;12.73;3.90;;;12.10;91.50;;;;;;5079104;28;20191;-92
2021/12/31 05:52:15;;;;;;;11.90;3.23;;;12.10;91.60;;;;;;5078568;28;20245;-92
2021/12/31 05:54:41;;;;;;;8.27;2.60;;;12.00;91.50;;;;;;5078489;28;20183;-91
2021/12/31 05:57:06;;;;;;;8.57;3.40;;;12.20;91.40;;;;;;5060890;28;20636;-92
2021/12/31 05:59:32;;;;;;;9.90;4.00;;;12.20;91.20;;;;;;5060135;28;20234;-92
2021/12/31 06:01:58;;;;;;;8.13;3.10;;;12.20;91.30;;;;;;5060436;28;20639;-93
2021/12/31 06:04:24;;;;;;;12.70;3.87;;;12.10;91.30;;;;;;5079479;28;20167;-92
2021/12/31 06:06:50;;;;;;;10.80;3.70;;;12.10;91.40;;;;;;5061130;28;20592;-92
2021/12/31 06:09:15;;;;;;;9.80;3.60;;;12.20;91.30;;;;;;5060739;28;20191;-92
2021/12/31 06:11:41;;;;;;;7.57;3.33;;;12.20;91.30;;;;;;5060877;28;20179;-92
2021/12/31 06:14:10;;;;;;;11.10;3.47;;;12.20;91.30;;;;;;5061884;28;20254;-92
2021/12/31 06:16:41;;;;;;;6.90;2.67;;;12.20;91.10;;;;;;5060666;28;20175;-91
2021/12/31 06:19:08;;;;;;;8.67;2.57;;;12.20;91.10;;;;;;5060083;28;20211;-91
2021/12/31 06:21:42;;;;;;;10.57;3.77;;;12.20;90.90;;;;;;5078075;28;20266;-91
2021/12/31 06:24:09;;;;;;;11.53;3.50;;;12.20;91.20;;;;;;5060755;28;20179;-92
2021/12/31 06:26:35;;;;;;;9.87;3.70;;;12.20;91.40;;;;;;5078811;28;20627;-92
2021/12/31 06:29:01;;;;;;;9.70;3.97;;;12.10;91.60;;;;;;5060356;28;20199;-92
2021/12/31 06:31:27;;;;;;;8.00;3.70;;;12.10;91.70;;;;;;5078480;28;20224;-92
2021/12/31 06:33:53;;;;;;;11.83;5.33;;;12.20;91.80;;;;;;5064513;28;20175;-92
2021/12/31 06:36:20;;;;;;;9.90;3.80;;;12.10;91.90;;;;;;5082272;28;20167;-92
2021/12/31 06:38:46;;;;;;;8.83;3.70;;;12.00;91.90;;;;;;5081619;28;20194;-92
2021/12/31 06:41:14;;;;;;;6.43;3.30;;;12.10;92.00;;;;;;5063516;28;20210;-91
2021/12/31 06:43:39;;;;;;;11.73;4.57;;;12.10;91.80;;;;;;5064226;28;20171;-92
2021/12/31 06:46:05;;;;;;;8.73;3.83;;;12.00;91.90;;;;;;5065281;28;20203;-92
2021/12/31 06:48:31;;;;;;;8.30;3.37;;;12.10;92.00;;;;;;5064188;28;20193;-92
2021/12/31 06:50:56;;;;;;;8.40;3.60;;;12.00;91.90;;;;;;5064986;28;20581;-92
2021/12/31 06:53:22;;;;;;;9.47;4.23;;;12.00;92.00;;;;;;5063342;28;20249;-91
2021/12/31 06:55:47;;;;;;;6.97;4.00;;;12.00;92.10;;;;;;5063354;28;20555;-91
2021/12/31 06:58:13;;;;;;;7.97;4.10;;;12.10;92.20;;;;;;5080852;28;20187;-91
2021/12/31 07:00:39;;;;;;;12.00;4.70;;;12.10;92.00;;;;;;5063149;28;20221;-91
2021/12/31 07:03:10;;;;;;;8.43;3.87;;;12.10;91.90;;;;;;5080993;28;20534;-91
2021/12/31 07:05:36;;;;;;;9.60;3.60;;;12.20;91.80;;;;;;5062380;28;20179;-92
2021/12/31 07:08:03;;;;;;;9.13;4.17;;;12.10;91.70;;;;;;5062427;28;20220;-91
2021/12/31 07:10:29;;;;;;;7.33;3.57;;;12.20;91.60;;;;;;5061604;28;20223;-92
2021/12/31 07:13:05;;;;;;;9.93;4.07;;;12.20;91.60;;;;;;5061936;28;20183;-91
2021/12/31 07:15:31;;;;;;;9.20;3.53;;;12.30;91.30;;;;;;5061913;28;20171;-91
2021/12/31 07:17:56;;;;;;;7.33;3.63;;;12.20;91.40;;;;;;5080247;28;20186;-91
2021/12/31 07:20:22;;;;;;;9.43;4.10;;;12.20;91.40;;;;;;5079715;28;20202;-91
2021/12/31 07:22:48;;;;;;;6.67;3.20;;;12.20;91.30;;;;;;5061678;28;20186;-91
2021/12/31 07:25:14;;;;;;;5.50;3.40;;;12.30;91.10;;;;;;5062152;28;20176;-91
2021/12/31 07:27:40;;;;;;;8.70;4.00;;;12.30;91.10;;;;;;5061824;28;20203;-91
2021/12/31 07:30:06;;;;;;;6.30;3.60;;;12.20;91.10;;;;;;5079678;28;20651;-91
2021/12/31 07:32:38;;;;;;;4.63;2.80;;;12.20;91.20;;;;;;5079625;28;20231;-91
2021/12/31 07:35:05;;;;;;;4.07;3.27;;;12.30;91.20;;;;;;5061515;28;20187;-91
2021/12/31 07:37:30;;;;;;;8.50;3.77;;;12.30;90.70;;;;;;5061568;28;20190;-91
2021/12/31 07:40:02;;;;;;;9.17;4.20;;;12.30;90.70;;;;;;5079704;28;20195;-91
2021/12/31 07:42:28;;;;;;;10.40;5.23;;;12.30;90.90;;;;;;5061419;28;20564;-90
2021/12/31 07:44:53;;;;;;;5.20;4.40;;;12.30;90.80;;;;;;5078446;28;20179;-91
2021/12/31 07:47:19;;;;;;;4.47;3.43;;;12.40;90.60;;;;;;5060946;28;20302;-91
2021/12/31 07:49:44;;;;;;;9.50;4.50;;;12.50;90.30;;;;;;5061163;28;20195;-91
2021/12/31 07:52:10;;;;;;;6.00;3.87;;;12.50;90.10;;;;;;5060762;28;20179;-91
2021/12/31 07:54:36;;;;;;;9.73;4.37;;;12.40;90.30;;;;;;5061487;28;20715;-91
2021/12/31 07:57:01;;;;;;;8.77;4.40;;;12.50;90.40;;;;;;5079737;28;20179;-91
2021/12/31 07:59:27;;;;;;;6.97;3.93;;;12.50;89.80;;;;;;5079611;28;20200;-91
2021/12/31 08:01:52;;;;;;;5.60;3.27;;;12.50;89.90;;;;;;5060596;28;20278;-90
2021/12/31 08:04:18;;;;;;;5.00;3.47;;;12.50;89.80;;;;;;5081913;28;20167;-92
2021/12/31 08:06:43;;;;;;;8.10;3.47;;;12.70;89.60;;;;;;5066002;28;20599;-90
2021/12/31 08:09:09;;;;;;;5.00;3.70;;;12.60;89.50;;;;;;5061394;28;20694;-91
2021/12/31 08:11:35;;;;;;;4.77;3.33;;;12.50;89.70;;;;;;5064032;28;20171;-91
2021/12/31 08:14:00;;;;;;;8.00;3.60;;;12.60;89.70;;;;;;5064812;28;20178;-90
2021/12/31 08:16:26;;;;;;;5.33;3.30;;;12.60;89.60;;;;;;5082515;28;20186;-90
2021/12/31 08:18:52;;;;;;;4.20;2.87;;;12.70;89.40;;;;;;5081578;28;20198;-91
2021/12/31 08:21:17;;;;;;;10.87;3.90;;;12.70;89.50;;;;;;5064006;28;20250;-90
2021/12/31 08:23:43;;;;;;;6.63;3.90;;;12.70;89.10;;;;;;5081209;28;20179;-89
2021/12/31 08:26:09;;;;;;;6.03;3.90;;;12.50;89.50;;;;;;5081807;28;20199;-90
2021/12/31 08:28:34;;;;;;;8.13;3.30;;;12.40;89.80;;;;;;5064643;28;20560;-90
2021/12/31 08:31:00;;;;;;;4.47;2.60;;;12.40;90.00;;;;;;5081451;28;20609;-90
2021/12/31 08:33:26;;;;;;;4.53;3.00;;;12.50;89.70;;;;;;5064354;28;20171;-90
2021/12/31 08:35:52;;;;;;;7.90;3.70;;;12.50;89.80;;;;;;5063951;28;20179;-89
2021/12/31 08:38:18;;;;;;;8.63;3.20;;;12.50;89.70;;;;;;5061715;28;20175;-88
2021/12/31 08:40:43;;;;;;;4.13;3.33;;;12.50;89.70;;;;;;5062253;28;20184;-90
2021/12/31 08:43:09;;;;;;;4.47;3.70;;;12.40;89.80;;;;;;5080330;28;20258;-89
2021/12/31 08:45:34;;;;;;;6.53;3.90;;;12.40;89.90;;;;;;5060675;28;20266;-89
2021/12/31 08:48:01;;;;;;;9.63;3.67;;;12.40;90.00;;;;;;5061424;28;20264;-90
2021/12/31 08:50:27;;;;;;;8.83;3.80;;;12.40;90.10;;;;;;5061413;28;20195;-90
2021/12/31 08:52:53;;;;;;;6.40;3.63;;;12.50;90.00;;;;;;5061242;28;20627;-90
2021/12/31 08:55:19;;;;;;;4.73;3.63;;;12.50;89.90;;;;;;5059974;28;20180;-89
2021/12/31 08:57:45;;;;;;;8.60;3.93;;;12.60;89.70;;;;;;5060800;28;20187;-89
2021/12/31 09:00:11;;;;;;;4.17;3.57;;;12.60;89.60;;;;;;5060847;28;20203;-90
2021/12/31 09:02:39;;;;;;;5.70;3.33;;;12.50;89.90;;;;;;5060735;28;20183;-90
2021/12/31 09:05:06;;;;;;;7.83;3.53;;;12.50;89.70;;;;;;5078837;28;20182;-90
2021/12/31 09:07:32;;;;;;;7.43;3.90;;;12.60;89.60;;;;;;5059808;28;20544;-89
2021/12/31 09:09:58;;;;;;;5.47;3.57;;;12.50;89.70;;;;;;5059758;28;20198;-89
2021/12/31 09:12:24;;;;;;;4.37;3.50;;;12.50;89.40;;;;;;5059165;28;20175;-90
2021/12/31 09:14:50;;;;;;;6.07;3.77;;;12.50;89.70;;;;;;5059858;28;20183;-89
2021/12/31 09:17:16;;;;;;;5.27;3.83;;;12.50;89.60;;;;;;5076925;28;20655;-90
2021/12/31 09:19:42;;;;;;;5.83;3.53;;;12.50;89.80;;;;;;5059303;28;20222;-90
2021/12/31 09:22:09;;;;;;;8.30;4.20;;;12.40;89.80;;;;;;5076971;28;20202;-91
2021/12/31 09:24:35;;;;;;;4.57;3.10;;;12.50;89.80;;;;;;5075488;28;20202;-90
2021/12/31 09:27:01;;;;;;;7.57;3.50;;;12.60;89.10;;;;;;5075236;28;20230;-90
2021/12/31 09:29:26;;;;;;;5.97;3.50;;;12.50;89.40;;;;;;5074987;28;20187;-90
2021/12/31 09:31:52;;;;;;;6.33;3.33;;;12.50;89.40;;;;;;5057111;28;20270;-90
2021/12/31 09:34:18;;;;;;;6.50;3.27;;;12.60;89.20;;;;;;5057359;28;20178;-90
2021/12/31 09:36:44;;;;;;;5.17;3.33;;;12.70;88.90;;;;;;5075481;28;20589;-90
2021/12/31 09:39:10;;;;;;;7.77;3.50;;;12.70;89.00;;;;;;5057682;28;20203;-89
2021/12/31 09:41:36;;;;;;;6.23;2.70;;;12.60;88.90;;;;;;5075730;28;20175;-90
2021/12/31 09:44:02;;;;;;;5.90;3.20;;;12.70;88.80;;;;;;5057219;28;20230;-90
2021/12/31 09:46:27;;;;;;;4.20;2.67;;;12.80;88.60;;;;;;5056940;28;20209;-90
2021/12/31 09:48:53;;;;;;;5.37;3.13;;;12.60;89.00;;;;;;5075016;28;20276;-90
2021/12/31 09:51:19;;;;;;;4.63;2.90;;;12.70;88.80;;;;;;5057114;28;20172;-90
2021/12/31 09:53:45;;;;;;;5.93;3.00;;;12.70;88.70;;;;;;5057608;28;20167;-90
2021/12/31 09:56:13;;;;;;;4.37;3.20;;;12.60;88.80;;;;;;5057011;28;20186;-90
2021/12/31 09:58:39;;;;;;;5.03;2.80;;;12.70;88.80;;;;;;5056936;28;20221;-90
2021/12/31 10:01:08;;;;;;;5.93;2.77;;;12.60;88.90;;;;;;5056862;28;20229;-90
2021/12/31 10:03:35;;;;;;;8.20;2.80;;;12.70;89.00;;;;;;5057100;28;20201;-90
2021/12/31 10:06:13;;;;;;;4.73;2.90;;;12.60;88.80;;;;;;5057245;28;20203;-90
2021/12/31 10:08:44;;;;;;;5.00;3.33;;;12.40;89.20;;;;;;5061671;28;20197;-90
2021/12/31 10:11:12;;;;;;;5.17;2.43;;;12.50;89.20;;;;;;5061149;28;20198;-90
2021/12/31 10:13:41;;;;;;;5.03;2.87;;;12.60;89.00;;;;;;5060794;28;20182;-90
2021/12/31 10:16:19;;;;;;;3.77;2.40;;;12.60;88.70;;;;;;5060861;28;20661;-89
2021/12/31 10:18:44;;;;;;;7.57;2.70;;;12.70;88.60;;;;;;5061032;28;20210;-90
2021/12/31 10:21:10;;;;;;;7.13;2.47;;;12.60;88.70;;;;;;5061178;28;20269;-90
2021/12/31 10:23:39;;;;;;;7.00;2.60;;;12.60;89.10;;;;;;5060460;28;20244;-89
2021/12/31 10:26:17;;;;;;;4.33;2.53;;;12.80;88.30;;;;;;5060617;28;20249;-90
2021/12/31 10:28:57;;;;;;;5.77;3.07;;;12.80;88.30;;;;;;5059994;28;20225;-89
2021/12/31 10:31:23;;;;;;;6.90;3.00;;;12.70;88.90;;;;;;5060554;28;20177;-90
2021/12/31 10:33:50;;;;;;;6.10;2.80;;;12.70;88.80;;;;;;5060282;28;20239;-89
2021/12/31 10:36:36;;;;;;;3.10;2.47;;;12.70;88.70;;;;;;5060231;28;20180;-91
2021/12/31 10:39:23;;;;;;;8.90;2.93;;;12.70;88.70;;;;;;5059720;28;20237;-91
2021/12/31 10:41:59;;;;;;;7.33;3.00;;;12.60;88.60;;;;;;5059932;28;20186;-90
2021/12/31 10:44:54;;;;;;;4.00;2.57;;;12.60;88.50;;;;;;5060246;28;20171;-90
2021/12/31 10:47:23;;;;;;;6.03;2.70;;;12.70;88.40;;;;;;5077776;28;20635;-89
2021/12/31 10:50:00;;;;;;;5.63;2.93;;;12.60;88.40;;;;;;5059513;28;20290;-86
2021/12/31 10:52:37;;;;;;;4.43;2.50;;;12.60;88.40;;;;;;5059177;28;20651;-89
2021/12/31 10:55:17;;;;;;;8.47;3.10;;;12.60;88.10;;;;;;5077200;28;20152;-88
2021/12/31 10:57:43;;;;;;;21.73;4.07;;;12.60;88.30;;;;;;5076885;28;20190;-89
2021/12/31 11:00:11;;;;;;;5.70;2.80;;;12.70;87.80;;;;;;5058765;28;20223;-89
2021/12/31 11:02:38;;;;;;;7.43;2.93;;;12.70;87.60;;;;;;5058716;28;20182;-88
2021/12/31 11:05:05;;;;;;;4.43;2.83;;;12.60;88.10;;;;;;5076625;28;20187;-90
2021/12/31 11:07:31;;;;;;;4.50;2.60;;;12.70;87.90;;;;;;5076492;28;20210;-89
2021/12/31 11:09:58;;;;;;;5.40;2.73;;;12.70;87.90;;;;;;5058529;28;20203;-89
2021/12/31 11:12:31;;;;;;;6.27;3.10;;;12.60;88.00;;;;;;5058914;28;20182;-89
2021/12/31 11:14:57;;;;;;;5.53;2.43;;;12.60;87.90;;;;;;5076932;28;20246;-89
2021/12/31 11:17:24;;;;;;;5.20;2.83;;;12.60;87.90;;;;;;5058273;28;20214;-89
2021/12/31 11:19:51;;;;;;;6.70;2.97;;;12.60;88.00;;;;;;5057159;28;20218;-86
2021/12/31 11:22:24;;;;;;;6.13;3.20;;;12.60;88.00;;;;;;5076103;28;20176;-90
2021/12/31 11:24:50;;;;;;;4.20;3.47;;;12.60;88.00;;;;;;5058341;28;20202;-89
2021/12/31 11:27:31;;;;;;;5.27;3.20;;;12.50;88.60;;;;;;5076020;28;20238;-90
2021/12/31 11:29:58;;;;;;;8.40;3.63;;;12.50;88.70;;;;;;5058146;28;20195;-89
2021/12/31 11:32:47;;;;;;;6.70;2.90;;;12.50;88.60;;;;;;5058240;28;20581;-89
2021/12/31 11:35:34;;;;;;;7.00;3.33;;;12.40;88.70;;;;;;5062849;28;20195;-89
2021/12/31 11:38:20;;;;;;;8.83;3.80;;;12.30;88.80;;;;;;5058237;28;20172;-88
2021/12/31 11:40:51;;;;;;;5.70;3.13;;;12.40;89.40;;;;;;5041311;28;20198;-89
2021/12/31 11:43:17;;;;;;;8.07;4.13;;;12.30;90.30;;;;;;5075859;28;20576;-89
2021/12/31 11:45:43;;;;;;;6.63;4.07;;;12.10;90.70;;;;;;5057743;28;20180;-89
2021/12/31 11:48:50;;;;;;;4.97;3.80;;;12.00;91.70;;;;;;5058206;28;20509;-88
2021/12/31 11:51:18;;;;;;;5.67;4.90;;;11.90;92.50;;;;;;5057773;28;20175;-89
2021/12/31 11:53:56;;;;;;;9.50;4.57;;;11.90;92.90;;;;;;5057741;28;20171;-89
2021/12/31 11:56:47;;;;;;;4.63;4.23;;;11.80;93.00;;;;;;5075521;28;20587;-89
2021/12/31 11:59:13;;;;;;;10.90;5.10;;;11.70;93.20;;;;;;5046475;28;20214;-89
2021/12/31 12:02:10;;;;;;;7.70;5.07;;;11.80;93.30;;;;;;5057521;28;20183;-89
2021/12/31 12:04:38;;;;;;;9.43;5.57;;;11.80;93.40;;;;;;5057283;28;20705;-88
2021/12/31 12:07:15;;;;;;;6.33;4.97;;;11.80;93.30;;;;;;5075121;28;20279;-88
2021/12/31 12:09:44;;;;;;;12.53;5.87;;;11.80;93.30;;;;;;5075422;28;20199;-89
2021/12/31 12:12:10;;;;;;;4.97;3.37;;;11.80;93.10;;;;;;5057240;28;20696;-89
2021/12/31 12:14:41;;;;;;;9.30;5.57;;;11.70;93.20;;;;;;5075887;28;20178;-90
2021/12/31 12:17:11;;;;;;;9.53;4.30;;;11.80;93.10;;;;;;5075380;28;20202;-89
2021/12/31 12:20:03;;;;;;;10.27;4.67;;;11.80;93.20;;;;;;5057004;28;20700;-90
2021/12/31 12:22:40;;;;;;;8.43;5.40;;;11.80;93.00;;;;;;5070304;28;20198;-89
2021/12/31 12:25:17;;;;;;;7.43;5.07;;;11.80;93.20;;;;;;5057044;28;20178;-90
2021/12/31 12:27:43;;;;;;;8.50;5.47;;;11.80;93.20;;;;;;5057018;28;20263;-89
2021/12/31 12:30:11;;;;;;;13.10;5.77;;;11.80;93.30;;;;;;5057089;28;20191;-90
2021/12/31 12:32:51;;;;;;;5.47;4.83;;;11.80;93.30;;;;;;5056845;28;20325;-89
2021/12/31 12:35:22;;;;;;;7.83;4.80;;;11.80;93.30;;;;;;5056916;28;20191;-89
2021/12/31 12:38:14;;;;;;;5.37;4.93;;;11.80;93.30;;;;;;5057072;28;20664;-89
2021/12/31 12:40:41;;;;;;;9.17;5.70;;;11.80;93.20;;;;;;5056912;28;20721;-89
2021/12/31 12:43:22;;;;;;;10.13;5.10;;;11.70;93.20;;;;;;5056630;28;20179;-89
2021/12/31 12:45:53;;;;;;;8.23;5.93;;;11.70;93.30;;;;;;5057084;28;20186;-88
2021/12/31 12:48:53;;;;;;;8.10;5.37;;;11.70;93.30;;;;;;5056594;28;20176;-89
2021/12/31 12:51:28;;;;;;;6.53;5.57;;;11.60;93.20;;;;;;5075957;28;20148;-89
2021/12/31 12:53:54;;;;;;;9.03;5.80;;;11.60;93.40;;;;;;5058995;28;20178;-89